createdAt,value
2023-01-02T00:00:43.586Z,500.00
2023-01-02T00:01:43.486Z,504.00
2023-01-02T00:02:43.610Z,506.00
2023-01-02T00:03:43.534Z,506.00
2023-01-02T00:04:43.413Z,505.00
2023-01-02T00:05:43.389Z,501.00
2023-01-02T00:06:43.335Z,508.00
2023-01-02T00:07:43.316Z,502.00
2023-01-02T00:08:43.284Z,510.00
2023-01-02T00:09:43.225Z,508.00
2023-01-02T00:10:43.220Z,504.00
2023-01-02T00:11:43.169Z,508.00
2023-01-02T00:12:43.153Z,505.00
2023-01-02T00:13:43.100Z,508.00
2023-01-02T00:14:43.083Z,506.00
2023-01-02T00:15:43.097Z,505.00
2023-01-02T00:16:43.030Z,503.00
2023-01-02T00:17:42.994Z,507.00
2023-01-02T00:18:42.960Z,507.00
2023-01-02T00:19:42.918Z,503.00
2023-01-02T00:20:42.912Z,508.00
2023-01-02T00:21:42.880Z,503.00
2023-01-02T00:22:42.847Z,505.00
2023-01-02T00:23:42.846Z,506.00
2023-01-02T00:24:42.820Z,502.00
2023-01-02T00:25:42.794Z,506.00
2023-01-02T00:26:42.752Z,502.00
2023-01-02T00:27:42.738Z,500.00
2023-01-02T00:28:42.682Z,508.00
2023-01-02T00:29:42.640Z,504.00
2023-01-02T00:30:42.621Z,500.00
2023-01-02T00:31:42.618Z,506.00
2023-01-02T00:32:42.582Z,508.00
2023-01-02T00:33:42.539Z,509.00
2023-01-02T00:34:42.501Z,506.00
2023-01-02T00:35:42.419Z,510.00
2023-01-02T00:36:42.413Z,504.00
2023-01-02T00:37:42.371Z,507.00
2023-01-02T00:38:42.352Z,503.00
2023-01-02T00:39:42.296Z,502.00
2023-01-02T00:40:42.262Z,501.00
2023-01-02T00:41:42.229Z,505.00
2023-01-02T00:42:42.203Z,506.00
2023-01-02T00:43:42.156Z,506.00
2023-01-02T00:44:42.115Z,505.00
2023-01-02T00:45:42.106Z,506.00
2023-01-02T00:46:42.057Z,509.00
2023-01-02T00:47:42.018Z,502.00
2023-01-02T00:48:41.994Z,504.00
2023-01-02T00:49:41.937Z,504.00
2023-01-02T00:50:41.915Z,502.00
2023-01-02T00:51:41.855Z,507.00
2023-01-02T00:52:41.844Z,508.00
2023-01-02T00:53:41.826Z,507.00
2023-01-02T00:54:41.801Z,502.00
2023-01-02T00:55:41.753Z,504.00
2023-01-02T00:56:41.721Z,502.00
2023-01-02T00:57:41.691Z,504.00
2023-01-02T00:58:41.684Z,503.00
2023-01-02T00:59:41.633Z,503.00
2023-01-02T01:00:41.675Z,502.00
2023-01-02T01:01:41.703Z,505.00
2023-01-02T01:02:41.633Z,507.00
2023-01-02T01:03:41.521Z,503.00
2023-01-02T01:04:41.484Z,502.00
2023-01-02T01:05:41.480Z,502.00
2023-01-02T01:06:41.413Z,501.00
2023-01-02T01:07:41.396Z,506.00
2023-01-02T01:08:41.393Z,505.00
2023-01-02T01:09:41.312Z,502.00
2023-01-02T01:10:41.303Z,505.00
2023-01-02T01:11:41.254Z,504.00
2023-01-02T01:12:41.251Z,507.00
2023-01-02T01:13:41.215Z,507.00
2023-01-02T01:14:41.180Z,505.00
2023-01-02T01:15:41.133Z,502.00
2023-01-02T01:16:41.136Z,506.00
2023-01-02T01:17:41.075Z,506.00
2023-01-02T01:18:41.055Z,503.00
2023-01-02T01:19:41.002Z,504.00
2023-01-02T01:20:40.964Z,506.00
2023-01-02T01:21:40.922Z,507.00
2023-01-02T01:22:40.894Z,501.00
2023-01-02T01:23:40.970Z,505.00
2023-01-02T01:24:40.832Z,501.00
2023-01-02T01:25:40.803Z,505.00
2023-01-02T01:26:40.786Z,504.00
2023-01-02T01:27:40.737Z,507.00
2023-01-02T01:28:40.720Z,504.00
2023-01-02T01:29:40.663Z,501.00
2023-01-02T01:30:40.616Z,504.00
2023-01-02T01:31:40.616Z,506.00
2023-01-02T01:32:40.563Z,505.00
2023-01-02T01:33:40.492Z,500.00
2023-01-02T01:34:40.458Z,502.00
2023-01-02T01:35:40.411Z,503.00
2023-01-02T01:36:40.370Z,504.00
2023-01-02T01:37:40.329Z,504.00
2023-01-02T01:38:40.303Z,505.00
2023-01-02T01:39:40.266Z,503.00
2023-01-02T01:40:40.217Z,506.00
2023-01-02T01:41:40.167Z,501.00
2023-01-02T01:42:40.134Z,506.00
2023-01-02T01:43:40.095Z,505.00
2023-01-02T01:44:40.086Z,507.00
2023-01-02T01:45:40.070Z,501.00
2023-01-02T01:46:39.979Z,503.00
2023-01-02T01:47:39.935Z,505.00
2023-01-02T01:48:39.906Z,501.00
2023-01-02T01:49:39.884Z,508.00
2023-01-02T01:50:39.853Z,502.00
2023-01-02T01:51:39.779Z,505.00
2023-01-02T01:52:39.773Z,503.00
2023-01-02T01:53:39.742Z,504.00
2023-01-02T01:54:39.719Z,506.00
2023-01-02T01:55:39.662Z,503.00
2023-01-02T01:56:39.657Z,502.00
2023-01-02T01:57:39.591Z,503.00
2023-01-02T01:58:39.574Z,504.00
2023-01-02T01:59:39.535Z,502.00
2023-01-02T02:00:39.531Z,502.00
2023-01-02T02:01:39.524Z,506.00
2023-01-02T02:02:39.517Z,500.00
2023-01-02T02:03:39.381Z,504.00
2023-01-02T02:04:39.356Z,504.00
2023-01-02T02:05:39.302Z,503.00
2023-01-02T02:06:39.299Z,500.00
2023-01-02T02:07:39.246Z,506.00
2023-01-02T02:08:39.209Z,505.00
2023-01-02T02:09:39.599Z,504.00
2023-01-02T02:10:39.138Z,506.00
2023-01-02T02:11:39.105Z,503.00
2023-01-02T02:12:39.112Z,500.00
2023-01-02T02:13:39.059Z,503.00
2023-01-02T02:14:39.041Z,501.00
2023-01-02T04:06:35.242Z,506.00
2023-01-02T04:07:35.197Z,504.00
2023-01-02T04:08:35.156Z,501.00
2023-01-02T04:09:35.108Z,503.00
2023-01-02T04:10:35.098Z,505.00
2023-01-02T04:11:35.071Z,503.00
2023-01-02T04:12:35.018Z,508.00
2023-01-02T04:13:34.960Z,509.00
2023-01-02T04:14:34.946Z,510.00
2023-01-02T04:15:34.923Z,508.00
2023-01-02T04:16:34.908Z,501.00
2023-01-02T04:17:34.840Z,509.00
2023-01-02T04:18:34.803Z,512.00
2023-01-02T04:19:34.781Z,505.00
2023-01-02T04:20:34.753Z,506.00
2023-01-02T04:21:34.757Z,511.00
2023-01-02T04:22:34.672Z,506.00
2023-01-02T04:23:34.705Z,503.00
2023-01-02T04:24:34.635Z,505.00
2023-01-02T04:25:34.597Z,509.00
2023-01-02T04:26:34.572Z,503.00
2023-01-02T04:27:34.508Z,503.00
2023-01-02T04:28:34.477Z,504.00
2023-01-02T04:29:34.434Z,504.00
2023-01-02T04:30:34.398Z,505.00
2023-01-02T04:31:34.421Z,501.00
2023-01-02T04:32:34.353Z,503.00
2023-01-02T04:33:34.316Z,506.00
2023-01-02T04:34:34.272Z,507.00
2023-01-02T04:35:34.247Z,504.00
2023-01-02T04:36:34.242Z,502.00
2023-01-02T04:37:34.206Z,500.00
2023-01-02T04:38:34.138Z,507.00
2023-01-02T04:39:34.125Z,507.00
2023-01-02T04:40:34.090Z,507.00
2023-01-02T04:41:34.070Z,506.00
2023-01-02T04:42:34.052Z,506.00
2023-01-02T04:43:34.021Z,503.00
2023-01-02T04:44:33.985Z,504.00
2023-01-02T04:45:33.936Z,508.00
2023-01-02T04:46:33.922Z,506.00
2023-01-02T04:47:33.893Z,510.00
2023-01-02T04:48:33.816Z,506.00
2023-01-02T04:49:33.823Z,507.00
2023-01-02T04:50:33.777Z,508.00
2023-01-02T04:51:33.744Z,505.00
2023-01-02T04:52:37.464Z,504.00
2023-01-02T04:53:33.697Z,504.00
2023-01-02T04:54:33.675Z,504.00
2023-01-02T04:55:33.634Z,504.00
2023-01-02T04:56:33.615Z,503.00
2023-01-02T04:57:33.588Z,502.00
2023-01-02T04:58:33.543Z,504.00
2023-01-02T04:59:33.514Z,502.00
2023-01-02T05:00:33.486Z,502.00
2023-01-02T05:01:33.573Z,507.00
2023-01-02T05:02:33.573Z,508.00
2023-01-02T05:03:33.438Z,500.00
2023-01-02T05:04:33.383Z,501.00
2023-01-02T05:05:33.376Z,501.00
2023-01-02T05:06:33.321Z,503.00
2023-01-02T05:07:33.305Z,504.00
2023-01-02T05:08:33.253Z,502.00
2023-01-02T05:09:33.218Z,504.00
2023-01-02T05:10:33.187Z,503.00
2023-01-02T05:11:33.176Z,503.00
2023-01-02T05:12:33.159Z,504.00
2023-01-02T05:13:33.093Z,500.00
2023-01-02T05:14:33.057Z,508.00
2023-01-02T05:15:33.100Z,505.00
2023-01-02T05:16:33.017Z,501.00
2023-01-02T05:17:32.976Z,509.00
2023-01-02T05:18:32.931Z,506.00
2023-01-02T05:19:32.896Z,506.00
2023-01-02T05:20:32.864Z,500.00
2023-01-02T05:21:32.873Z,506.00
2023-01-02T05:22:32.818Z,504.00
2023-01-02T05:23:32.852Z,508.00
2023-01-02T05:24:32.739Z,504.00
2023-01-02T05:25:32.720Z,505.00
2023-01-02T05:26:32.747Z,503.00
2023-01-02T05:27:32.678Z,500.00
2023-01-02T05:28:38.357Z,509.00
2023-01-02T05:29:33.584Z,508.00
2023-01-02T05:30:32.559Z,506.00
2023-01-02T05:31:32.547Z,501.00
2023-01-02T05:32:32.514Z,504.00
2023-01-02T05:33:32.467Z,499.00
2023-01-02T05:34:32.430Z,501.00
2023-01-02T05:35:33.491Z,505.00
2023-01-02T05:36:32.389Z,505.00
2023-01-02T05:37:32.370Z,502.00
2023-01-02T05:38:32.318Z,508.00
2023-01-02T05:39:32.290Z,500.00
2023-01-02T05:40:32.243Z,504.00
2023-01-02T05:41:32.216Z,502.00
2023-01-02T05:42:32.179Z,504.00
2023-01-02T05:43:32.184Z,505.00
2023-01-02T05:44:32.119Z,504.00
2023-01-02T05:45:32.105Z,511.00
2023-01-02T05:46:32.070Z,507.00
2023-01-02T05:47:32.050Z,504.00
2023-01-02T05:48:32.031Z,502.00
2023-01-02T05:49:31.975Z,503.00
2023-01-02T05:50:31.959Z,503.00
2023-01-02T05:51:31.937Z,504.00
2023-01-02T05:52:31.894Z,507.00
2023-01-02T05:53:31.880Z,501.00
2023-01-02T05:54:31.868Z,503.00
2023-01-02T05:55:31.844Z,500.00
2023-01-02T05:56:31.791Z,503.00
2023-01-02T05:57:31.765Z,500.00
2023-01-02T05:58:31.761Z,503.00
2023-01-02T05:59:35.832Z,504.00
2023-01-02T06:00:31.708Z,504.00
2023-01-02T06:01:31.678Z,504.00
2023-01-02T06:02:31.677Z,502.00
2023-01-02T06:03:31.700Z,505.00
2023-01-02T06:04:31.568Z,503.00
2023-01-02T06:05:31.521Z,502.00
2023-01-02T06:06:31.493Z,503.00
2023-01-02T06:07:31.508Z,500.00
2023-01-02T06:08:31.458Z,502.00
2023-01-02T06:09:31.453Z,502.00
2023-01-02T06:10:31.429Z,509.00
2023-01-02T06:11:31.379Z,505.00
2023-01-02T06:12:31.335Z,502.00
2023-01-02T06:13:31.339Z,502.00
2023-01-02T06:14:31.274Z,509.00
2023-01-02T06:15:31.230Z,508.00
2023-01-02T06:16:31.276Z,507.00
2023-01-02T06:17:31.186Z,503.00
2023-01-02T06:18:31.174Z,510.00
2023-01-02T06:19:31.115Z,508.00
2023-01-02T06:20:31.121Z,506.00
2023-01-02T06:21:31.106Z,503.00
2023-01-02T06:22:31.027Z,507.00
2023-01-02T06:23:31.022Z,505.00
2023-01-02T06:24:30.967Z,505.00
2023-01-02T06:25:30.937Z,504.00
2023-01-02T06:26:35.001Z,501.00
2023-01-02T06:27:30.866Z,501.00
2023-01-02T06:28:30.876Z,502.00
2023-01-02T06:29:30.814Z,502.00
2023-01-02T06:30:30.781Z,505.00
2023-01-02T06:31:30.822Z,503.00
2023-01-02T06:32:30.726Z,505.00
2023-01-02T06:33:30.708Z,503.00
2023-01-02T06:34:30.654Z,501.00
2023-01-02T06:35:30.614Z,504.00
2023-01-02T06:36:30.628Z,504.00
2023-01-02T06:37:30.583Z,505.00
2023-01-02T06:38:30.578Z,508.00
2023-01-02T06:39:30.559Z,505.00
2023-01-02T06:40:30.465Z,503.00
2023-01-02T06:41:30.463Z,503.00
2023-01-02T06:42:30.421Z,500.00
2023-01-02T06:43:30.386Z,504.00
2023-01-02T06:44:30.381Z,506.00
2023-01-02T06:45:30.365Z,506.00
2023-01-02T06:46:30.303Z,504.00
2023-01-02T06:47:30.276Z,507.00
2023-01-02T06:48:30.240Z,507.00
2023-01-02T06:49:30.245Z,503.00
2023-01-02T06:50:34.860Z,504.00
2023-01-02T06:51:31.145Z,504.00
2023-01-02T06:52:30.125Z,504.00
2023-01-02T06:53:30.111Z,504.00
2023-01-02T06:54:30.082Z,504.00
2023-01-02T06:55:30.042Z,507.00
2023-01-02T06:56:30.006Z,504.00
2023-01-02T06:57:29.986Z,506.00
2023-01-02T06:58:29.950Z,505.00
2023-01-02T06:59:29.949Z,505.00
2023-01-02T07:00:29.905Z,503.00
2023-01-02T07:01:30.051Z,503.00
2023-01-02T07:02:29.902Z,506.00
2023-01-02T07:03:29.785Z,503.00
2023-01-02T07:04:30.859Z,505.00
2023-01-02T07:05:29.730Z,506.00
2023-01-02T07:06:29.699Z,501.00
2023-01-02T07:07:29.684Z,505.00
2023-01-02T07:08:29.686Z,506.00
2023-01-02T07:09:29.613Z,506.00
2023-01-02T07:10:29.661Z,507.00
2023-01-02T07:11:29.560Z,505.00
2023-01-02T07:12:29.522Z,498.00
2023-01-02T07:13:29.474Z,506.00
2023-01-02T07:14:29.454Z,503.00
2023-01-02T07:15:29.407Z,503.00
2023-01-02T07:16:29.427Z,502.00
2023-01-02T07:17:29.334Z,500.00
2023-01-02T07:18:29.316Z,504.00
2023-01-02T07:19:29.290Z,504.00
2023-01-02T07:20:29.371Z,507.00
2023-01-02T07:21:29.224Z,507.00
2023-01-02T07:22:29.192Z,507.00
2023-01-02T07:23:29.125Z,507.00
2023-01-02T07:24:29.105Z,503.00
2023-01-02T07:25:29.052Z,505.00
2023-01-02T07:26:28.990Z,502.00
2023-01-02T08:42:26.348Z,506.00
2023-01-02T08:43:26.307Z,503.00
2023-01-02T08:44:26.263Z,510.00
2023-01-02T08:45:26.269Z,505.00
2023-01-02T08:46:26.231Z,507.00
2023-01-02T08:47:26.185Z,504.00
2023-01-02T08:48:26.154Z,506.00
2023-01-02T08:49:26.106Z,503.00
2023-01-02T08:50:26.176Z,503.00
2023-01-02T08:51:26.033Z,506.00
2023-01-02T08:52:26.007Z,504.00
2023-01-02T08:53:25.982Z,503.00
2023-01-02T08:54:25.925Z,501.00
2023-01-02T08:56:25.876Z,504.00
2023-01-02T08:57:25.833Z,503.00
2023-01-02T08:58:25.794Z,503.00
2023-01-02T08:59:25.762Z,504.00
2023-01-02T09:00:25.843Z,503.00
2023-01-02T09:01:25.826Z,504.00
2023-01-02T09:02:25.909Z,501.00
2023-01-02T09:03:25.682Z,505.00
2023-01-02T09:04:25.568Z,504.00
2023-01-02T09:05:25.527Z,504.00
2023-01-02T09:06:25.522Z,504.00
2023-01-02T09:07:25.487Z,504.00
2023-01-02T09:08:25.442Z,504.00
2023-01-02T09:09:25.402Z,502.00
2023-01-02T09:10:25.633Z,505.00
2023-01-02T09:11:25.324Z,503.00
2023-01-02T09:12:25.283Z,503.00
2023-01-02T09:13:25.242Z,503.00
2023-01-02T09:15:25.320Z,504.00
2023-01-02T09:17:25.061Z,504.00
2023-01-02T09:18:29.373Z,506.00
2023-01-02T09:19:24.989Z,505.00
2023-01-02T09:21:24.930Z,488.00
2023-01-02T09:22:24.829Z,494.00
2023-01-02T09:23:24.787Z,490.00
2023-01-02T09:24:24.743Z,510.00
2023-01-02T09:25:24.812Z,514.00
2023-01-02T09:26:24.688Z,506.00
2023-01-02T09:27:24.608Z,510.00
2023-01-02T09:28:24.553Z,500.00
2023-01-02T09:29:24.536Z,505.00
2023-01-02T09:30:24.530Z,512.00
2023-01-02T09:31:24.465Z,514.00
2023-01-02T09:32:24.390Z,500.00
2023-01-02T09:33:24.340Z,508.00
2023-01-02T09:34:24.280Z,501.00
2023-01-02T09:35:24.237Z,508.00
2023-01-02T09:36:24.239Z,512.00
2023-01-02T09:37:24.163Z,515.00
2023-01-02T09:38:24.150Z,500.00
2023-01-02T09:39:30.305Z,506.00
2023-01-02T09:40:25.052Z,506.00
2023-01-02T09:41:23.984Z,506.00
2023-01-02T09:42:23.982Z,508.00
2023-01-02T09:43:23.938Z,508.00
2023-01-02T09:45:23.845Z,502.00
2023-01-02T09:46:23.811Z,504.00
2023-01-02T09:47:23.752Z,512.00
2023-01-02T09:48:23.698Z,512.00
2023-01-02T09:49:23.650Z,514.00
2023-01-02T09:50:23.704Z,512.00
2023-01-02T09:51:23.538Z,509.00
2023-01-02T09:52:23.546Z,512.00
2023-01-02T09:53:23.472Z,506.00
2023-01-02T09:54:23.433Z,512.00
2023-01-02T09:55:23.387Z,509.00
2023-01-02T09:56:26.321Z,509.00
2023-01-02T09:57:24.292Z,509.00
2023-01-02T09:58:23.250Z,503.00
2023-01-02T09:59:23.204Z,502.00
2023-01-02T10:00:23.166Z,509.00
2023-01-02T10:01:23.132Z,508.00
2023-01-02T10:02:23.115Z,502.00
2023-01-02T10:03:23.073Z,506.00
2023-01-02T10:04:22.974Z,502.00
2023-01-02T10:05:22.902Z,504.00
2023-01-02T10:06:22.831Z,507.00
2023-01-02T10:07:22.819Z,510.00
2023-01-02T10:08:27.913Z,509.00
2023-01-02T10:09:23.680Z,509.00
2023-01-02T10:10:22.742Z,503.00
2023-01-02T10:11:22.625Z,509.00
2023-01-02T10:12:22.544Z,505.00
2023-01-02T10:13:32.639Z,503.00
2023-01-02T10:14:29.901Z,509.00
2023-01-02T10:15:23.375Z,509.00
2023-01-02T10:16:22.376Z,509.00
2023-01-02T10:17:22.301Z,507.00
2023-01-02T10:18:22.259Z,510.00
2023-01-02T10:19:22.192Z,503.00
2023-01-02T10:20:24.302Z,504.00
2023-01-02T10:21:22.118Z,504.00
2023-01-02T10:22:22.041Z,504.00
2023-01-02T10:23:21.978Z,505.00
2023-01-02T10:24:21.926Z,502.00
2023-01-02T10:25:21.851Z,503.00
2023-01-02T10:26:21.808Z,504.00
2023-01-02T10:27:21.797Z,502.00
2023-01-02T10:28:21.711Z,507.00
2023-01-02T10:29:21.705Z,505.00
2023-01-02T10:30:21.747Z,502.00
2023-01-02T10:31:21.738Z,503.00
2023-01-02T10:32:21.740Z,505.00
2023-01-02T10:33:21.736Z,505.00
2023-01-02T10:34:21.744Z,509.00
2023-01-02T10:35:21.751Z,501.00
2023-01-02T10:36:21.759Z,510.00
2023-01-02T10:37:21.783Z,502.00
2023-01-02T10:38:21.773Z,505.00
2023-01-02T10:39:21.767Z,500.00
2023-01-02T10:40:21.917Z,501.00
2023-01-02T10:41:21.807Z,506.00
2023-01-02T10:42:21.770Z,506.00
2023-01-02T10:43:21.888Z,508.00
2023-01-02T10:44:21.800Z,506.00
2023-01-02T10:45:21.811Z,506.00
2023-01-02T10:46:21.833Z,506.00
2023-01-02T10:47:21.818Z,506.00
2023-01-02T10:48:21.847Z,504.00
2023-01-02T10:49:21.840Z,513.00
2023-01-02T10:50:21.857Z,504.00
2023-01-02T10:51:21.843Z,507.00
2023-01-02T10:52:21.876Z,508.00
2023-01-02T10:53:21.870Z,507.00
2023-01-02T10:54:21.890Z,508.00
2023-01-02T10:55:21.859Z,507.00
2023-01-02T10:56:21.886Z,506.00
2023-01-02T10:57:21.889Z,511.00
2023-01-02T10:58:21.968Z,511.00
2023-01-02T10:59:21.901Z,508.00
2023-01-02T11:00:27.684Z,505.00
2023-01-02T11:01:23.060Z,505.00
2023-01-02T11:02:21.909Z,506.00
2023-01-02T11:03:21.755Z,505.00
2023-01-02T11:04:21.691Z,506.00
2023-01-02T11:05:21.647Z,510.00
2023-01-02T11:06:31.095Z,503.00
2023-01-02T11:07:22.520Z,503.00
2023-01-02T11:08:21.473Z,504.00
2023-01-02T11:09:21.447Z,505.00
2023-01-02T11:10:21.373Z,505.00
2023-01-02T11:11:21.306Z,509.00
2023-01-02T11:12:26.936Z,511.00
2023-01-02T11:13:22.229Z,512.00
2023-01-02T11:14:21.123Z,511.00
2023-01-02T11:15:21.063Z,508.00
2023-01-02T11:16:21.053Z,511.00
2023-01-02T11:17:20.990Z,510.00
2023-01-02T11:18:20.941Z,505.00
2023-01-02T11:19:27.425Z,513.00
2023-01-02T11:20:21.829Z,513.00
2023-01-02T11:21:20.771Z,512.00
2023-01-02T11:22:20.708Z,509.00
2023-01-02T11:23:20.645Z,506.00
2023-01-02T11:24:20.641Z,500.00
2023-01-02T11:25:20.539Z,504.00
2023-01-02T11:26:20.494Z,510.00
2023-01-02T11:27:20.420Z,505.00
2023-01-02T11:28:20.382Z,503.00
2023-01-02T11:29:20.312Z,500.00
2023-01-02T11:30:20.246Z,507.00
2023-01-02T11:31:20.200Z,506.00
2023-01-02T11:32:20.169Z,509.00
2023-01-02T11:33:20.092Z,506.00
2023-01-02T11:34:20.026Z,506.00
2023-01-02T11:35:19.934Z,508.00
2023-01-02T11:36:19.883Z,509.00
2023-01-02T11:37:19.796Z,503.00
2023-01-02T11:38:28.680Z,504.00
2023-01-02T11:39:20.676Z,505.00
2023-01-02T11:40:19.583Z,506.00
2023-01-02T11:41:19.509Z,505.00
2023-01-02T11:42:19.461Z,507.00
2023-01-02T11:43:19.371Z,502.00
2023-01-02T11:44:20.828Z,502.00
2023-01-02T11:45:19.227Z,502.00
2023-01-02T11:46:19.205Z,504.00
2023-01-02T11:47:19.070Z,500.00
2023-01-02T11:48:19.012Z,507.00
2023-01-02T12:52:14.341Z,505.00
2023-01-02T12:53:14.295Z,505.00
2023-01-02T12:55:14.139Z,506.00
2023-01-02T13:00:13.797Z,500.00
2023-01-02T13:02:13.835Z,503.00
2023-01-02T13:04:13.508Z,501.00
2023-01-02T13:06:45.226Z,506.00
2023-01-02T13:10:13.161Z,504.00
2023-01-02T13:13:12.966Z,505.00
2023-01-02T13:17:12.737Z,522.00
2023-01-02T13:21:12.487Z,537.00
2023-01-02T13:23:12.288Z,534.00
2023-01-02T13:24:12.229Z,543.00
2023-01-02T13:25:12.158Z,533.00
2023-01-02T13:26:12.097Z,527.00
2023-01-02T13:27:12.025Z,522.00
2023-01-02T13:28:11.993Z,520.00
2023-01-02T13:29:11.901Z,513.00
2023-01-02T13:30:16.555Z,510.00
2023-01-02T13:32:11.681Z,507.00
2023-01-02T13:33:11.627Z,507.00
2023-01-02T13:34:11.564Z,510.00
2023-01-02T13:35:11.479Z,506.00
2023-01-02T13:36:17.110Z,505.00
2023-01-02T13:38:11.334Z,505.00
2023-01-02T13:39:11.351Z,500.00
2023-01-02T13:40:11.205Z,505.00
2023-01-02T13:41:11.172Z,499.00
2023-01-02T13:42:11.106Z,503.00
2023-01-02T13:43:11.030Z,503.00
2023-01-02T13:44:10.977Z,509.00
2023-01-02T13:45:10.915Z,504.00
2023-01-02T13:46:15.763Z,506.00
2023-01-02T13:47:11.868Z,506.00
2023-01-02T13:48:10.745Z,506.00
2023-01-02T13:49:10.708Z,505.00
2023-01-02T13:50:10.642Z,505.00
2023-01-02T13:51:10.612Z,502.00
2023-01-02T13:52:10.527Z,501.00
2023-01-02T13:53:10.496Z,503.00
2023-01-02T13:54:14.193Z,501.00
2023-01-02T13:55:11.350Z,501.00
2023-01-02T13:56:10.308Z,501.00
2023-01-02T13:57:10.242Z,503.00
2023-01-02T13:58:10.162Z,503.00
2023-01-02T13:59:41.762Z,502.00
2023-01-02T14:00:11.068Z,501.00
2023-01-02T14:01:10.058Z,501.00
2023-01-02T14:02:10.161Z,501.00
2023-01-02T14:03:09.882Z,505.00
2023-01-02T14:04:09.822Z,502.00
2023-01-02T14:05:09.764Z,506.00
2023-01-02T14:06:09.699Z,502.00
2023-01-02T14:07:09.644Z,505.00
2023-01-02T14:08:09.591Z,506.00
2023-01-02T14:09:09.536Z,506.00
2023-01-02T14:10:09.490Z,508.00
2023-01-02T14:11:09.444Z,505.00
2023-01-02T14:12:09.359Z,504.00
2023-01-02T14:13:09.316Z,504.00
2023-01-02T14:14:09.260Z,506.00
2023-01-02T14:15:09.189Z,508.00
2023-01-02T14:16:09.243Z,505.00
2023-01-02T14:17:09.091Z,506.00
2023-01-02T14:18:09.048Z,502.00
2023-01-02T14:19:09.011Z,506.00
2023-01-02T16:53:01.773Z,552.00
2023-01-02T16:54:01.736Z,554.00
2023-01-02T16:55:01.685Z,555.00
2023-01-02T16:56:01.650Z,548.00
2023-01-02T16:57:01.610Z,548.00
2023-01-02T16:58:01.562Z,551.00
2023-01-02T16:59:01.528Z,539.00
2023-01-02T17:00:01.489Z,554.00
2023-01-02T17:01:01.483Z,555.00
2023-01-02T17:02:01.551Z,551.00
2023-01-02T17:03:01.435Z,542.00
2023-01-02T17:04:01.340Z,543.00
2023-01-02T17:05:01.243Z,554.00
2023-01-02T17:06:02.861Z,553.00
2023-01-02T17:07:01.186Z,549.00
2023-01-02T17:08:01.130Z,551.00
2023-01-02T17:09:01.099Z,549.00
2023-01-02T17:10:01.034Z,551.00
2023-01-02T17:11:01.046Z,549.00
2023-01-02T17:12:00.981Z,553.00
2023-01-02T17:13:00.901Z,551.00
2023-01-02T17:14:00.894Z,551.00
2023-01-02T17:15:00.811Z,552.00
2023-01-02T17:16:00.876Z,551.00
2023-01-02T17:17:00.755Z,551.00
2023-01-02T17:18:00.706Z,547.00
2023-01-02T17:19:00.681Z,551.00
2023-01-02T17:20:00.652Z,547.00
2023-01-02T17:21:00.588Z,551.00
2023-01-02T17:22:00.526Z,548.00
2023-01-02T17:23:00.582Z,550.00
2023-01-02T17:24:00.438Z,548.00
2023-01-02T17:25:00.435Z,552.00
2023-01-02T17:26:00.353Z,549.00
2023-01-02T17:27:00.328Z,549.00
2023-01-02T17:28:00.277Z,543.00
2023-01-02T17:29:00.236Z,550.00
2023-01-02T17:30:00.218Z,548.00
2023-01-02T17:31:00.157Z,547.00
2023-01-02T17:32:00.164Z,550.00
2023-01-02T17:33:03.976Z,550.00
2023-01-02T17:34:00.010Z,551.00
2023-01-02T17:34:59.968Z,551.00
2023-01-02T17:35:59.917Z,552.00
2023-01-02T17:36:59.861Z,551.00
2023-01-02T17:37:59.826Z,552.00
2023-01-02T17:38:59.779Z,551.00
2023-01-02T17:39:59.739Z,552.00
2023-01-02T17:40:59.699Z,550.00
2023-01-02T17:41:59.688Z,551.00
2023-01-02T17:42:59.631Z,551.00
2023-01-02T17:44:01.855Z,550.00
2023-01-02T17:44:59.544Z,551.00
2023-01-02T17:45:59.537Z,551.00
2023-01-02T17:47:23.351Z,550.00
2023-01-02T17:48:07.551Z,551.00
2023-01-02T17:49:00.377Z,551.00
2023-01-02T17:49:59.340Z,552.00
2023-01-02T17:50:59.270Z,553.00
2023-01-02T17:51:59.222Z,552.00
2023-01-02T17:52:59.182Z,552.00
2023-01-02T17:53:59.134Z,550.00
2023-01-02T17:54:59.103Z,549.00
2023-01-02T17:56:21.573Z,551.00
2023-01-02T17:57:00.016Z,552.00
2023-01-02T21:10:51.524Z,524.00
2023-01-02T21:11:51.502Z,522.00
2023-01-02T21:12:51.468Z,522.00
2023-01-02T21:13:51.428Z,525.00
2023-01-02T21:14:51.392Z,523.00
2023-01-02T21:15:51.427Z,524.00
2023-01-02T21:16:51.286Z,522.00
2023-01-02T21:17:51.263Z,521.00
2023-01-02T21:18:51.199Z,523.00
2023-01-02T21:19:51.163Z,520.00
2023-01-02T21:20:51.122Z,522.00
2023-01-02T21:21:51.071Z,520.00
2023-01-02T21:22:51.061Z,519.00
2023-01-02T21:23:50.976Z,523.00
2023-01-02T21:24:50.946Z,521.00
2023-01-02T21:25:50.916Z,521.00
2023-01-02T21:26:50.874Z,518.00
2023-01-02T21:27:50.864Z,519.00
2023-01-02T21:28:50.810Z,522.00
2023-01-02T21:29:50.740Z,519.00
2023-01-02T21:30:50.732Z,521.00
2023-01-02T21:31:50.743Z,522.00
2023-01-02T21:32:50.633Z,519.00
2023-01-02T21:33:50.614Z,514.00
2023-01-02T21:34:50.567Z,521.00
2023-01-02T21:35:50.530Z,521.00
2023-01-02T21:36:50.490Z,519.00
2023-01-02T21:37:50.457Z,515.00
2023-01-02T21:38:50.417Z,517.00
2023-01-02T21:39:50.381Z,520.00
2023-01-02T21:40:50.331Z,519.00
2023-01-02T21:41:50.284Z,516.00
2023-01-02T21:42:50.270Z,518.00
2023-01-02T21:43:50.222Z,520.00
2023-01-02T21:44:50.174Z,518.00
2023-01-02T21:45:50.123Z,516.00
2023-01-02T21:46:50.161Z,518.00
2023-01-02T21:47:50.065Z,517.00
2023-01-02T21:48:50.033Z,520.00
2023-01-02T21:49:49.986Z,517.00
2023-01-02T21:50:49.953Z,517.00
2023-01-02T21:51:49.927Z,516.00
2023-01-02T21:52:49.883Z,513.00
2023-01-02T21:53:49.845Z,520.00
2023-01-02T21:54:49.799Z,517.00
2023-01-02T21:55:49.756Z,517.00
2023-01-02T21:56:49.719Z,514.00
2023-01-02T21:58:15.687Z,517.00
2023-01-02T21:59:49.590Z,518.00
2023-01-02T22:00:49.590Z,518.00
2023-01-02T22:01:49.628Z,515.00
2023-01-02T22:02:49.564Z,519.00
2023-01-02T22:03:49.430Z,516.00
2023-01-02T22:04:49.395Z,514.00
2023-01-02T22:05:49.352Z,514.00
2023-01-02T22:07:21.296Z,515.00
2023-01-02T22:07:49.246Z,515.00
2023-01-02T22:08:49.210Z,515.00
2023-01-02T22:09:49.153Z,516.00
2023-01-02T22:10:49.121Z,515.00
2023-01-02T22:11:49.398Z,515.00
2023-01-02T22:12:49.022Z,514.00
2023-01-02T22:13:49.079Z,512.00
